sensor_id;sensor_type;location;lat;lon;timestamp;pressure;altitude;pressure_sealevel;temperature;humidity
59829;BME280;45708;51.848;107.620;2023-04-06T00:00:11;95805.41;;;5.25;30.45
59829;BME280;45708;51.848;107.620;2023-04-06T00:05:12;95815.59;;;5.98;29.37
59829;BME280;45708;51.848;107.620;2023-04-06T00:10:13;95807.34;;;5.31;28.44
59829;BME280;45708;51.848;107.620;2023-04-06T00:15:14;95809.22;;;5.06;29.02
59829;BME280;45708;51.848;107.620;2023-04-06T00:20:15;95802.38;;;5.44;27.30
59829;BME280;45708;51.848;107.620;2023-04-06T00:25:17;95800.03;;;5.58;26.55
59829;BME280;45708;51.848;107.620;2023-04-06T00:30:18;95798.28;;;4.86;26.11
59829;BME280;45708;51.848;107.620;2023-04-06T00:35:18;95793.53;;;4.57;26.58
59829;BME280;45708;51.848;107.620;2023-04-06T00:40:19;95784.75;;;5.30;26.16
59829;BME280;45708;51.848;107.620;2023-04-06T00:45:20;95795.94;;;6.25;25.43
59829;BME280;45708;51.848;107.620;2023-04-06T00:50:21;95803.00;;;7.00;24.90
59829;BME280;45708;51.848;107.620;2023-04-06T00:55:22;95800.19;;;5.95;24.87
59829;BME280;45708;51.848;107.620;2023-04-06T01:00:23;95788.34;;;6.07;24.81
59829;BME280;45708;51.848;107.620;2023-04-06T01:05:24;95776.41;;;7.32;23.67
59829;BME280;45708;51.848;107.620;2023-04-06T01:10:27;95784.22;;;6.74;23.20
59829;BME280;45708;51.848;107.620;2023-04-06T01:15:29;95775.47;;;6.58;24.06
59829;BME280;45708;51.848;107.620;2023-04-06T01:20:30;95779.22;;;7.01;23.50
59829;BME280;45708;51.848;107.620;2023-04-06T01:25:31;95755.03;;;7.21;23.28
59829;BME280;45708;51.848;107.620;2023-04-06T01:30:32;95766.63;;;7.77;22.86
59829;BME280;45708;51.848;107.620;2023-04-06T01:35:33;95749.59;;;7.73;22.58
59829;BME280;45708;51.848;107.620;2023-04-06T01:40:34;95717.75;;;7.47;22.43
59829;BME280;45708;51.848;107.620;2023-04-06T01:45:35;95766.88;;;6.50;22.53
59829;BME280;45708;51.848;107.620;2023-04-06T01:50:36;95769.34;;;6.05;22.63
59829;BME280;45708;51.848;107.620;2023-04-06T01:55:37;95721.53;;;5.95;23.17
59829;BME280;45708;51.848;107.620;2023-04-06T02:00:37;95751.72;;;6.14;22.82
59829;BME280;45708;51.848;107.620;2023-04-06T02:05:38;95723.03;;;6.35;22.29
59829;BME280;45708;51.848;107.620;2023-04-06T02:10:39;95715.50;;;6.99;22.92
59829;BME280;45708;51.848;107.620;2023-04-06T02:15:40;95719.78;;;6.86;22.46
59829;BME280;45708;51.848;107.620;2023-04-06T02:20:41;95710.22;;;6.18;22.76
59829;BME280;45708;51.848;107.620;2023-04-06T02:25:41;95718.81;;;3.74;24.60
59829;BME280;45708;51.848;107.620;2023-04-06T02:30:42;95732.34;;;0.90;27.56
59829;BME280;45708;51.848;107.620;2023-04-06T02:35:44;95730.94;;;-0.17;29.18
59829;BME280;45708;51.848;107.620;2023-04-06T02:40:45;95724.66;;;-1.12;30.90
59829;BME280;45708;51.848;107.620;2023-04-06T02:45:46;95703.13;;;-1.43;30.92
59829;BME280;45708;51.848;107.620;2023-04-06T02:50:47;95708.28;;;-1.43;32.01
59829;BME280;45708;51.848;107.620;2023-04-06T02:55:47;95695.94;;;-1.30;30.96
59829;BME280;45708;51.848;107.620;2023-04-06T03:00:48;95694.09;;;-1.49;31.34
59829;BME280;45708;51.848;107.620;2023-04-06T03:05:49;95695.13;;;-1.31;31.46
59829;BME280;45708;51.848;107.620;2023-04-06T03:10:50;95678.97;;;-1.44;31.53
59829;BME280;45708;51.848;107.620;2023-04-06T03:15:51;95682.78;;;-1.48;31.74
59829;BME280;45708;51.848;107.620;2023-04-06T03:20:52;95677.13;;;-1.23;31.65
59829;BME280;45708;51.848;107.620;2023-04-06T03:25:52;95662.72;;;-1.15;31.52
59829;BME280;45708;51.848;107.620;2023-04-06T03:30:53;95670.31;;;-1.24;31.50
59829;BME280;45708;51.848;107.620;2023-04-06T03:35:54;95658.06;;;-1.02;31.47
59829;BME280;45708;51.848;107.620;2023-04-06T03:40:55;95646.84;;;-1.22;31.16
59829;BME280;45708;51.848;107.620;2023-04-06T03:45:56;95642.94;;;-1.07;31.05
59829;BME280;45708;51.848;107.620;2023-04-06T03:50:58;95635.69;;;-1.03;31.34
59829;BME280;45708;51.848;107.620;2023-04-06T03:55:59;95617.41;;;-0.82;31.04
59829;BME280;45708;51.848;107.620;2023-04-06T04:00:59;95611.13;;;-0.61;31.44
59829;BME280;45708;51.848;107.620;2023-04-06T04:06:00;95604.03;;;-0.49;30.40
59829;BME280;45708;51.848;107.620;2023-04-06T04:11:01;95590.66;;;-0.54;30.60
59829;BME280;45708;51.848;107.620;2023-04-06T04:16:02;95582.94;;;-0.17;30.52
59829;BME280;45708;51.848;107.620;2023-04-06T04:21:03;95573.53;;;-0.18;29.83
59829;BME280;45708;51.848;107.620;2023-04-06T04:26:05;95547.56;;;-0.18;30.75
59829;BME280;45708;51.848;107.620;2023-04-06T04:31:06;95541.81;;;0.16;29.57
59829;BME280;45708;51.848;107.620;2023-04-06T04:36:08;95545.84;;;0.28;29.61
59829;BME280;45708;51.848;107.620;2023-04-06T04:41:08;95513.91;;;0.18;29.73
59829;BME280;45708;51.848;107.620;2023-04-06T04:46:09;95512.19;;;0.09;30.04
59829;BME280;45708;51.848;107.620;2023-04-06T04:51:10;95493.81;;;0.38;29.77
59829;BME280;45708;51.848;107.620;2023-04-06T04:56:11;95485.84;;;0.67;28.93
59829;BME280;45708;51.848;107.620;2023-04-06T05:01:12;95477.44;;;0.55;28.62
59829;BME280;45708;51.848;107.620;2023-04-06T05:06:12;95477.69;;;0.62;28.89
59829;BME280;45708;51.848;107.620;2023-04-06T05:11:13;95474.22;;;0.79;28.84
59829;BME280;45708;51.848;107.620;2023-04-06T05:16:14;95453.34;;;1.06;28.08
59829;BME280;45708;51.848;107.620;2023-04-06T05:21:15;95467.69;;;1.10;27.94
59829;BME280;45708;51.848;107.620;2023-04-06T05:26:16;95449.69;;;0.99;28.52
59829;BME280;45708;51.848;107.620;2023-04-06T05:31:16;95435.25;;;1.23;28.03
59829;BME280;45708;51.848;107.620;2023-04-06T05:36:17;95432.81;;;1.55;27.16
59829;BME280;45708;51.848;107.620;2023-04-06T05:41:18;95431.41;;;1.35;27.70
59829;BME280;45708;51.848;107.620;2023-04-06T05:46:19;95423.00;;;1.41;27.83
59829;BME280;45708;51.848;107.620;2023-04-06T05:51:20;95402.84;;;1.43;27.43
59829;BME280;45708;51.848;107.620;2023-04-06T05:56:21;95403.03;;;1.49;27.77
59829;BME280;45708;51.848;107.620;2023-04-06T06:01:21;95403.84;;;1.58;28.07
59829;BME280;45708;51.848;107.620;2023-04-06T06:06:22;95381.78;;;1.62;27.92
59829;BME280;45708;51.848;107.620;2023-04-06T06:11:23;95375.53;;;1.55;28.19
59829;BME280;45708;51.848;107.620;2023-04-06T06:16:24;95372.09;;;1.89;28.28
59829;BME280;45708;51.848;107.620;2023-04-06T06:21:25;95360.97;;;1.78;27.93
59829;BME280;45708;51.848;107.620;2023-04-06T06:26:25;95350.94;;;2.00;27.30
59829;BME280;45708;51.848;107.620;2023-04-06T06:31:26;95332.69;;;2.00;27.03
59829;BME280;45708;51.848;107.620;2023-04-06T06:36:29;95326.56;;;2.25;27.12
59829;BME280;45708;51.848;107.620;2023-04-06T06:41:30;95320.34;;;2.34;27.06
59829;BME280;45708;51.848;107.620;2023-04-06T06:46:31;95315.16;;;2.67;26.51
59829;BME280;45708;51.848;107.620;2023-04-06T06:51:32;95308.28;;;2.82;26.76
59829;BME280;45708;51.848;107.620;2023-04-06T06:56:33;95286.44;;;2.75;26.61
59829;BME280;45708;51.848;107.620;2023-04-06T07:01:34;95291.75;;;2.98;26.65
59829;BME280;45708;51.848;107.620;2023-04-06T07:06:37;95281.31;;;2.98;26.65
59829;BME280;45708;51.848;107.620;2023-04-06T07:11:38;95288.03;;;3.00;25.74
59829;BME280;45708;51.848;107.620;2023-04-06T07:16:39;95278.47;;;2.68;26.15
59829;BME280;45708;51.848;107.620;2023-04-06T07:21:40;95263.34;;;2.48;26.04
59829;BME280;45708;51.848;107.620;2023-04-06T07:26:41;95257.09;;;2.81;25.97
59829;BME280;45708;51.848;107.620;2023-04-06T07:31:42;95259.72;;;2.65;25.62
59829;BME280;45708;51.848;107.620;2023-04-06T07:36:43;95241.81;;;2.54;25.86
59829;BME280;45708;51.848;107.620;2023-04-06T07:41:44;95244.53;;;2.85;25.50
59829;BME280;45708;51.848;107.620;2023-04-06T07:46:44;95245.69;;;2.82;25.92
59829;BME280;45708;51.848;107.620;2023-04-06T07:51:45;95225.75;;;2.89;25.36
59829;BME280;45708;51.848;107.620;2023-04-06T07:56:46;95225.00;;;3.12;25.85
59829;BME280;45708;51.848;107.620;2023-04-06T08:01:47;95210.81;;;3.45;25.59
59829;BME280;45708;51.848;107.620;2023-04-06T08:06:48;95218.44;;;3.24;25.11
59829;BME280;45708;51.848;107.620;2023-04-06T08:11:49;95204.06;;;3.28;25.10
59829;BME280;45708;51.848;107.620;2023-04-06T08:16:50;95195.63;;;3.49;24.97
59829;BME280;45708;51.848;107.620;2023-04-06T08:21:51;95191.91;;;3.43;24.12
59829;BME280;45708;51.848;107.620;2023-04-06T08:26:52;95188.69;;;3.33;23.81
59829;BME280;45708;51.848;107.620;2023-04-06T08:31:53;95188.25;;;3.52;22.46
59829;BME280;45708;51.848;107.620;2023-04-06T08:36:54;95175.59;;;3.41;23.10
59829;BME280;45708;51.848;107.620;2023-04-06T08:41:55;95179.03;;;3.42;22.98
59829;BME280;45708;51.848;107.620;2023-04-06T08:46:59;95168.09;;;3.38;22.18
59829;BME280;45708;51.848;107.620;2023-04-06T08:52:02;95159.97;;;3.33;22.62
59829;BME280;45708;51.848;107.620;2023-04-06T08:57:03;95150.13;;;3.43;22.06
59829;BME280;45708;51.848;107.620;2023-04-06T09:02:06;95154.53;;;3.43;21.87
59829;BME280;45708;51.848;107.620;2023-04-06T09:07:08;95150.41;;;3.48;22.45
59829;BME280;45708;51.848;107.620;2023-04-06T09:12:09;95148.16;;;3.45;22.15
59829;BME280;45708;51.848;107.620;2023-04-06T09:17:20;95134.78;;;3.40;21.99
59829;BME280;45708;51.848;107.620;2023-04-06T09:22:21;95135.13;;;3.37;21.23
59829;BME280;45708;51.848;107.620;2023-04-06T09:27:32;95136.88;;;3.22;21.76
59829;BME280;45708;51.848;107.620;2023-04-06T09:32:55;95145.81;;;3.27;21.91
59829;BME280;45708;51.848;107.620;2023-04-06T09:37:56;95129.19;;;3.20;21.90
59829;BME280;45708;51.848;107.620;2023-04-06T09:42:57;95128.06;;;3.23;22.22
59829;BME280;45708;51.848;107.620;2023-04-06T09:47:59;95123.88;;;3.14;22.41
59829;BME280;45708;51.848;107.620;2023-04-06T09:53:00;95114.47;;;3.04;22.68
59829;BME280;45708;51.848;107.620;2023-04-06T09:58:05;95114.47;;;3.04;22.70
59829;BME280;45708;51.848;107.620;2023-04-06T10:08:27;95112.81;;;2.81;23.02
59829;BME280;45708;51.848;107.620;2023-04-06T10:13:28;95118.69;;;2.74;23.62
59829;BME280;45708;51.848;107.620;2023-04-06T10:18:29;95108.94;;;2.68;23.75
59829;BME280;45708;51.848;107.620;2023-04-06T10:28:36;95096.47;;;2.48;23.83
59829;BME280;45708;51.848;107.620;2023-04-06T10:33:36;95102.38;;;2.33;24.04
59829;BME280;45708;51.848;107.620;2023-04-06T10:38:38;95087.59;;;2.26;24.41
59829;BME280;45708;51.848;107.620;2023-04-06T10:43:40;95073.44;;;2.12;24.35
59829;BME280;45708;51.848;107.620;2023-04-06T10:48:43;95085.53;;;2.05;24.14
59829;BME280;45708;51.848;107.620;2023-04-06T10:53:48;95067.00;;;1.83;24.43
59829;BME280;45708;51.848;107.620;2023-04-06T10:58:52;95067.03;;;1.67;24.79
59829;BME280;45708;51.848;107.620;2023-04-06T11:03:56;95065.75;;;1.47;24.72
59829;BME280;45708;51.848;107.620;2023-04-06T11:08:58;95052.25;;;1.27;24.96
59829;BME280;45708;51.848;107.620;2023-04-06T11:14:00;95053.69;;;1.05;25.04
59829;BME280;45708;51.848;107.620;2023-04-06T11:19:04;95043.44;;;0.87;25.58
59829;BME280;45708;51.848;107.620;2023-04-06T11:24:07;95037.38;;;0.63;25.78
59829;BME280;45708;51.848;107.620;2023-04-06T11:29:08;95040.88;;;0.37;26.40
59829;BME280;45708;51.848;107.620;2023-04-06T11:34:13;95048.84;;;0.02;26.84
59829;BME280;45708;51.848;107.620;2023-04-06T11:39:20;95048.53;;;-0.29;27.96
59829;BME280;45708;51.848;107.620;2023-04-06T11:44:38;95043.66;;;-0.58;27.29
59829;BME280;45708;51.848;107.620;2023-04-06T11:49:41;95038.16;;;-0.55;28.02
59829;BME280;45708;51.848;107.620;2023-04-06T11:54:42;95039.59;;;-0.79;28.69
59829;BME280;45708;51.848;107.620;2023-04-06T11:59:44;95040.34;;;-1.04;29.03
59829;BME280;45708;51.848;107.620;2023-04-06T12:04:46;95052.28;;;-1.11;29.33
59829;BME280;45708;51.848;107.620;2023-04-06T12:09:47;95045.94;;;-0.99;28.53
59829;BME280;45708;51.848;107.620;2023-04-06T12:14:48;95042.88;;;-0.95;28.77
59829;BME280;45708;51.848;107.620;2023-04-06T12:19:49;95039.69;;;-1.06;29.13
59829;BME280;45708;51.848;107.620;2023-04-06T12:24:50;95047.41;;;-1.14;29.32
59829;BME280;45708;51.848;107.620;2023-04-06T12:29:51;95045.78;;;-1.15;28.61
59829;BME280;45708;51.848;107.620;2023-04-06T12:34:55;95045.47;;;-1.12;29.22
59829;BME280;45708;51.848;107.620;2023-04-06T12:39:55;95039.03;;;-1.08;29.16
59829;BME280;45708;51.848;107.620;2023-04-06T12:44:56;95029.31;;;-1.06;29.13
59829;BME280;45708;51.848;107.620;2023-04-06T12:49:57;95029.91;;;-1.12;29.20
59829;BME280;45708;51.848;107.620;2023-04-06T12:54:58;95028.09;;;-1.20;29.40
59829;BME280;45708;51.848;107.620;2023-04-06T12:59:59;95027.53;;;-1.24;30.20
59829;BME280;45708;51.848;107.620;2023-04-06T13:05:00;95016.19;;;-1.40;29.73
59829;BME280;45708;51.848;107.620;2023-04-06T13:10:00;95021.94;;;-1.37;29.62
59829;BME280;45708;51.848;107.620;2023-04-06T13:15:02;95023.56;;;-1.36;29.43
59829;BME280;45708;51.848;107.620;2023-04-06T13:20:03;95010.81;;;-1.47;30.27
59829;BME280;45708;51.848;107.620;2023-04-06T13:25:04;95017.19;;;-1.59;30.68
59829;BME280;45708;51.848;107.620;2023-04-06T13:30:05;95007.97;;;-1.71;30.73
59829;BME280;45708;51.848;107.620;2023-04-06T13:35:06;95009.78;;;-1.81;31.38
59829;BME280;45708;51.848;107.620;2023-04-06T13:40:08;95010.31;;;-1.96;31.99
59829;BME280;45708;51.848;107.620;2023-04-06T13:45:09;94998.88;;;-2.03;32.67
59829;BME280;45708;51.848;107.620;2023-04-06T13:50:10;94996.97;;;-2.28;33.34
59829;BME280;45708;51.848;107.620;2023-04-06T13:55:11;94990.72;;;-2.35;33.11
59829;BME280;45708;51.848;107.620;2023-04-06T14:00:12;94990.25;;;-2.21;32.55
59829;BME280;45708;51.848;107.620;2023-04-06T14:05:13;94976.94;;;-2.26;32.45
59829;BME280;45708;51.848;107.620;2023-04-06T14:10:14;94985.38;;;-2.24;32.48
59829;BME280;45708;51.848;107.620;2023-04-06T14:15:15;94973.00;;;-2.30;32.65
59829;BME280;45708;51.848;107.620;2023-04-06T14:20:16;94969.09;;;-2.44;32.65
59829;BME280;45708;51.848;107.620;2023-04-06T14:25:16;94964.94;;;-2.55;33.20
59829;BME280;45708;51.848;107.620;2023-04-06T14:30:17;94960.50;;;-2.72;34.06
59829;BME280;45708;51.848;107.620;2023-04-06T14:35:18;94955.25;;;-2.80;34.65
59829;BME280;45708;51.848;107.620;2023-04-06T14:40:20;94952.38;;;-2.77;34.06
59829;BME280;45708;51.848;107.620;2023-04-06T14:45:21;94946.63;;;-2.81;33.95
59829;BME280;45708;51.848;107.620;2023-04-06T14:50:23;94942.47;;;-2.91;33.93
59829;BME280;45708;51.848;107.620;2023-04-06T14:55:24;94948.59;;;-2.92;34.52
59829;BME280;45708;51.848;107.620;2023-04-06T15:00:25;94941.13;;;-2.95;34.95
59829;BME280;45708;51.848;107.620;2023-04-06T15:05:25;94934.47;;;-2.98;35.19
59829;BME280;45708;51.848;107.620;2023-04-06T15:10:26;94932.28;;;-3.02;35.00
59829;BME280;45708;51.848;107.620;2023-04-06T15:15:28;94930.81;;;-3.05;35.98
59829;BME280;45708;51.848;107.620;2023-04-06T15:20:29;94931.91;;;-3.08;35.95
59829;BME280;45708;51.848;107.620;2023-04-06T15:25:30;94939.94;;;-3.11;36.77
59829;BME280;45708;51.848;107.620;2023-04-06T15:30:31;94932.59;;;-3.25;36.69
59829;BME280;45708;51.848;107.620;2023-04-06T15:35:33;94932.09;;;-3.38;37.53
59829;BME280;45708;51.848;107.620;2023-04-06T15:40:34;94928.03;;;-3.60;37.66
59829;BME280;45708;51.848;107.620;2023-04-06T15:45:42;94915.00;;;-3.68;38.00
59829;BME280;45708;51.848;107.620;2023-04-06T15:50:43;94920.84;;;-3.76;38.68
59829;BME280;45708;51.848;107.620;2023-04-06T15:55:43;94918.66;;;-3.90;39.17
59829;BME280;45708;51.848;107.620;2023-04-06T16:00:44;94911.97;;;-4.02;39.71
59829;BME280;45708;51.848;107.620;2023-04-06T16:05:45;94910.22;;;-4.11;39.92
59829;BME280;45708;51.848;107.620;2023-04-06T16:10:46;94904.38;;;-4.13;39.46
59829;BME280;45708;51.848;107.620;2023-04-06T16:15:50;94886.84;;;-4.29;39.91
59829;BME280;45708;51.848;107.620;2023-04-06T16:20:51;94886.72;;;-4.28;39.78
59829;BME280;45708;51.848;107.620;2023-04-06T16:25:52;94865.00;;;-4.35;40.20
59829;BME280;45708;51.848;107.620;2023-04-06T16:30:53;94867.81;;;-4.57;41.31
59829;BME280;45708;51.848;107.620;2023-04-06T16:35:54;94868.47;;;-4.55;40.54
59829;BME280;45708;51.848;107.620;2023-04-06T16:41:01;94858.44;;;-4.58;41.17
59829;BME280;45708;51.848;107.620;2023-04-06T16:46:03;94862.22;;;-4.62;41.50
59829;BME280;45708;51.848;107.620;2023-04-06T16:51:13;94857.88;;;-4.71;42.57
59829;BME280;45708;51.848;107.620;2023-04-06T16:56:14;94852.09;;;-4.94;43.29
59829;BME280;45708;51.848;107.620;2023-04-06T17:01:23;94858.84;;;-5.03;43.86
59829;BME280;45708;51.848;107.620;2023-04-06T17:06:24;94845.66;;;-5.09;44.41
59829;BME280;45708;51.848;107.620;2023-04-06T17:11:25;94835.50;;;-5.11;44.28
59829;BME280;45708;51.848;107.620;2023-04-06T17:16:26;94831.97;;;-5.10;43.27
59829;BME280;45708;51.848;107.620;2023-04-06T17:21:27;94840.44;;;-4.98;43.17
59829;BME280;45708;51.848;107.620;2023-04-06T17:26:28;94840.94;;;-5.04;43.78
59829;BME280;45708;51.848;107.620;2023-04-06T17:31:29;94832.25;;;-5.13;43.08
59829;BME280;45708;51.848;107.620;2023-04-06T17:36:30;94834.22;;;-5.26;43.58
59829;BME280;45708;51.848;107.620;2023-04-06T17:41:31;94837.69;;;-5.37;44.30
59829;BME280;45708;51.848;107.620;2023-04-06T17:46:31;94835.31;;;-5.49;44.74
59829;BME280;45708;51.848;107.620;2023-04-06T17:51:32;94824.78;;;-5.46;44.32
59829;BME280;45708;51.848;107.620;2023-04-06T17:56:33;94823.41;;;-5.51;45.24
59829;BME280;45708;51.848;107.620;2023-04-06T18:01:34;94807.28;;;-5.53;45.44
59829;BME280;45708;51.848;107.620;2023-04-06T18:06:35;94795.34;;;-5.54;44.29
59829;BME280;45708;51.848;107.620;2023-04-06T18:11:35;94772.19;;;-5.54;43.65
59829;BME280;45708;51.848;107.620;2023-04-06T18:16:37;94764.59;;;-5.55;43.91
59829;BME280;45708;51.848;107.620;2023-04-06T18:21:37;94777.63;;;-5.47;43.42
59829;BME280;45708;51.848;107.620;2023-04-06T18:26:38;94770.91;;;-5.38;42.74
59829;BME280;45708;51.848;107.620;2023-04-06T18:31:39;94767.94;;;-5.24;43.05
59829;BME280;45708;51.848;107.620;2023-04-06T18:36:40;94771.75;;;-5.28;42.02
59829;BME280;45708;51.848;107.620;2023-04-06T18:41:40;94769.78;;;-5.45;43.45
59829;BME280;45708;51.848;107.620;2023-04-06T18:46:45;94763.44;;;-5.72;44.05
59829;BME280;45708;51.848;107.620;2023-04-06T18:51:46;94752.31;;;-6.03;46.71
59829;BME280;45708;51.848;107.620;2023-04-06T18:56:47;94760.72;;;-6.22;46.80
59829;BME280;45708;51.848;107.620;2023-04-06T19:01:48;94753.66;;;-6.29;48.02
59829;BME280;45708;51.848;107.620;2023-04-06T19:06:49;94754.19;;;-6.67;49.84
59829;BME280;45708;51.848;107.620;2023-04-06T19:11:50;94748.00;;;-6.97;49.48
59829;BME280;45708;51.848;107.620;2023-04-06T19:16:50;94761.81;;;-7.20;50.76
59829;BME280;45708;51.848;107.620;2023-04-06T19:21:51;94728.63;;;-7.67;51.11
59829;BME280;45708;51.848;107.620;2023-04-06T19:26:52;94770.94;;;-7.72;52.70
59829;BME280;45708;51.848;107.620;2023-04-06T19:31:54;94772.13;;;-7.76;51.93
59829;BME280;45708;51.848;107.620;2023-04-06T19:36:55;94771.63;;;-7.81;52.88
59829;BME280;45708;51.848;107.620;2023-04-06T19:41:56;94765.59;;;-7.80;51.44
59829;BME280;45708;51.848;107.620;2023-04-06T19:46:58;94766.28;;;-7.78;52.54
59829;BME280;45708;51.848;107.620;2023-04-06T19:51:58;94768.97;;;-7.80;52.33
59829;BME280;45708;51.848;107.620;2023-04-06T19:56:59;94743.44;;;-7.70;52.59
59829;BME280;45708;51.848;107.620;2023-04-06T20:02:01;94749.97;;;-7.55;51.43
59829;BME280;45708;51.848;107.620;2023-04-06T20:07:01;94750.91;;;-7.56;51.45
59829;BME280;45708;51.848;107.620;2023-04-06T20:12:02;94747.16;;;-7.52;50.79
59829;BME280;45708;51.848;107.620;2023-04-06T20:17:03;94735.03;;;-7.50;49.76
59829;BME280;45708;51.848;107.620;2023-04-06T20:22:04;94736.31;;;-7.55;50.50
59829;BME280;45708;51.848;107.620;2023-04-06T20:27:05;94735.38;;;-7.66;51.22
59829;BME280;45708;51.848;107.620;2023-04-06T20:32:06;94732.47;;;-7.61;49.90
59829;BME280;45708;51.848;107.620;2023-04-06T20:37:06;94743.19;;;-7.67;50.82
59829;BME280;45708;51.848;107.620;2023-04-06T20:42:07;94743.53;;;-7.83;51.37
59829;BME280;45708;51.848;107.620;2023-04-06T20:47:08;94739.94;;;-7.91;51.34
59829;BME280;45708;51.848;107.620;2023-04-06T20:52:09;94741.91;;;-7.84;50.04
59829;BME280;45708;51.848;107.620;2023-04-06T20:57:10;94740.06;;;-7.93;51.05
59829;BME280;45708;51.848;107.620;2023-04-06T21:02:11;94738.53;;;-8.07;51.62
59829;BME280;45708;51.848;107.620;2023-04-06T21:07:11;94748.06;;;-8.09;51.12
59829;BME280;45708;51.848;107.620;2023-04-06T21:12:12;94735.47;;;-8.23;52.38
59829;BME280;45708;51.848;107.620;2023-04-06T21:17:13;94741.53;;;-8.24;52.46
59829;BME280;45708;51.848;107.620;2023-04-06T21:22:14;94745.47;;;-8.42;52.97
59829;BME280;45708;51.848;107.620;2023-04-06T21:27:15;94748.72;;;-8.51;52.81
59829;BME280;45708;51.848;107.620;2023-04-06T21:32:16;94750.16;;;-8.71;53.91
59829;BME280;45708;51.848;107.620;2023-04-06T21:37:17;94748.38;;;-8.82;53.99
59829;BME280;45708;51.848;107.620;2023-04-06T21:42:17;94754.47;;;-8.72;52.63
59829;BME280;45708;51.848;107.620;2023-04-06T21:47:18;94747.94;;;-8.76;52.11
59829;BME280;45708;51.848;107.620;2023-04-06T21:52:19;94750.53;;;-8.65;51.39
59829;BME280;45708;51.848;107.620;2023-04-06T21:57:20;94739.34;;;-8.75;52.52
59829;BME280;45708;51.848;107.620;2023-04-06T22:02:20;94755.41;;;-8.73;51.29
59829;BME280;45708;51.848;107.620;2023-04-06T22:07:21;94764.88;;;-8.86;53.01
59829;BME280;45708;51.848;107.620;2023-04-06T22:12:22;94769.75;;;-8.94;53.12
59829;BME280;45708;51.848;107.620;2023-04-06T22:17:23;94767.66;;;-8.89;53.29
59829;BME280;45708;51.848;107.620;2023-04-06T22:22:24;94755.78;;;-8.90;53.15
59829;BME280;45708;51.848;107.620;2023-04-06T22:27:25;94755.97;;;-8.80;53.57
59829;BME280;45708;51.848;107.620;2023-04-06T22:32:26;94754.41;;;-8.59;52.38
59829;BME280;45708;51.848;107.620;2023-04-06T22:37:26;94756.09;;;-8.36;52.01
59829;BME280;45708;51.848;107.620;2023-04-06T22:42:27;94758.41;;;-8.21;51.32
59829;BME280;45708;51.848;107.620;2023-04-06T22:47:28;94757.53;;;-7.98;51.02
59829;BME280;45708;51.848;107.620;2023-04-06T22:52:29;94758.34;;;-7.86;51.20
59829;BME280;45708;51.848;107.620;2023-04-06T22:57:30;94761.41;;;-7.59;51.48
59829;BME280;45708;51.848;107.620;2023-04-06T23:02:31;94737.44;;;-7.26;50.81
59829;BME280;45708;51.848;107.620;2023-04-06T23:07:31;94747.81;;;-6.52;50.85
59829;BME280;45708;51.848;107.620;2023-04-06T23:12:32;94741.06;;;-6.11;48.68
59829;BME280;45708;51.848;107.620;2023-04-06T23:17:33;94754.16;;;-5.84;49.45
59829;BME280;45708;51.848;107.620;2023-04-06T23:22:34;94750.59;;;-4.53;47.13
59829;BME280;45708;51.848;107.620;2023-04-06T23:27:35;94742.13;;;-3.50;44.99
59829;BME280;45708;51.848;107.620;2023-04-06T23:32:36;94741.28;;;-2.33;40.72
59829;BME280;45708;51.848;107.620;2023-04-06T23:37:36;94752.91;;;-1.07;39.28
59829;BME280;45708;51.848;107.620;2023-04-06T23:42:37;94745.81;;;0.35;36.09
59829;BME280;45708;51.848;107.620;2023-04-06T23:47:38;94746.28;;;0.38;34.83
59829;BME280;45708;51.848;107.620;2023-04-06T23:52:38;94752.41;;;2.02;33.63
59829;BME280;45708;51.848;107.620;2023-04-06T23:57:39;94741.13;;;3.21;30.65
